Rio Bonito, Brazil
Current Conditions -  °F | °C
As of 6:00 PM on Thursday 23 Oct 2014 (Local Time) from SBCB Reporting Station
Few Clouds Few Clouds  
Wind Chill: 77°   Ceiling: Unl
Heat Index: 79°   Visibility: 6mi
Dew Point: 68°   Wind: 15mph
Humidity: 74%   Direction: 100°E
Pressure: 30.06"   Gusts: NA
Location:  22.71°S, 42.61°W
Report Text: SBCB 232000Z 10013KT 9999 FEW030 25/20 Q1018
Loading
Personal Weather Stations






























Interactive Weather Map
Tropical Storm Tracking
New forecast layout! Learn more

10-Day Weather Forecast

Advertisements
Track Severe Weather on mobile